createdAt,value
2022-08-17T00:00:44.164Z,86.50
2022-08-17T00:03:09.999Z,86.50
2022-08-17T00:05:42.996Z,86.60
2022-08-17T00:08:11.778Z,86.60
2022-08-17T00:10:41.042Z,86.60
2022-08-17T00:13:16.167Z,86.50
2022-08-17T00:15:44.842Z,86.50
2022-08-17T00:18:53.868Z,86.60
2022-08-17T00:21:05.228Z,86.70
2022-08-17T00:23:39.318Z,86.80
2022-08-17T00:26:14.223Z,86.80
2022-08-17T00:28:42.622Z,86.80
2022-08-17T00:31:11.577Z,86.90
2022-08-17T00:33:42.503Z,87.50
2022-08-17T00:36:12.703Z,86.70
2022-08-17T00:38:41.331Z,86.70
2022-08-17T00:41:12.155Z,86.60
2022-08-17T00:43:44.126Z,86.50
2022-08-17T00:46:15.386Z,86.40
2022-08-17T00:48:44.269Z,86.40
2022-08-17T00:51:19.888Z,86.20
2022-08-17T00:53:54.690Z,86.20
2022-08-17T00:56:31.472Z,86.20
2022-08-17T00:58:59.777Z,86.20
2022-08-17T01:01:28.215Z,86.10
2022-08-17T01:03:59.841Z,86.00
2022-08-17T01:06:30.284Z,86.10
2022-08-17T01:09:00.888Z,86.00
2022-08-17T01:11:30.492Z,86.80
2022-08-17T01:13:58.506Z,86.00
2022-08-17T01:16:29.383Z,86.00
2022-08-17T01:19:00.559Z,86.10
2022-08-17T01:21:37.352Z,86.10
2022-08-17T01:24:07.527Z,86.20
2022-08-17T01:26:37.025Z,86.30
2022-08-17T01:29:06.820Z,86.20
2022-08-17T01:31:39.236Z,86.40
2022-08-17T01:34:10.433Z,86.40
2022-08-17T01:36:39.745Z,86.50
2022-08-17T01:39:14.016Z,86.60
2022-08-17T01:41:42.955Z,86.60
2022-08-17T01:44:12.505Z,86.60
2022-08-17T01:46:40.697Z,86.70
2022-08-17T01:49:10.398Z,86.80
2022-08-17T01:51:39.477Z,86.90
2022-08-17T01:54:11.579Z,87.00
2022-08-17T01:56:42.453Z,87.00
2022-08-17T01:59:10.544Z,87.10
2022-08-17T02:01:39.127Z,87.20
2022-08-17T02:04:09.237Z,87.30
2022-08-17T02:06:52.960Z,87.40
2022-08-17T02:09:25.504Z,87.50
2022-08-17T02:11:56.391Z,87.50
2022-08-17T02:14:25.899Z,87.50
2022-08-17T02:16:56.215Z,87.60
2022-08-17T02:19:24.472Z,87.70
2022-08-17T02:21:54.962Z,87.70
2022-08-17T02:25:01.189Z,87.70
2022-08-17T02:27:16.128Z,87.80
2022-08-17T02:29:44.179Z,87.90
2022-08-17T02:32:20.889Z,88.00
2022-08-17T02:34:56.780Z,87.90
2022-08-17T02:37:25.197Z,88.00
2022-08-17T02:39:56.959Z,88.00
2022-08-17T02:42:31.510Z,87.90
2022-08-17T02:45:00.679Z,87.80
2022-08-17T02:47:28.976Z,87.70
2022-08-17T02:49:57.446Z,87.50
2022-08-17T02:52:42.487Z,87.40
2022-08-17T02:55:23.919Z,87.30
2022-08-17T02:57:53.066Z,87.20
2022-08-17T03:00:23.349Z,87.00
2022-08-17T03:02:52.236Z,87.00
2022-08-17T03:05:25.183Z,87.00
2022-08-17T03:07:53.783Z,87.00
2022-08-17T03:10:25.096Z,87.60
2022-08-17T03:12:54.528Z,88.80
2022-08-17T03:15:26.259Z,89.50
2022-08-17T03:17:54.795Z,90.00
2022-08-17T03:20:24.959Z,90.10
2022-08-17T03:22:55.687Z,90.10
2022-08-17T03:25:34.726Z,90.00
2022-08-17T03:28:03.012Z,90.00
2022-08-17T03:30:31.919Z,90.00
2022-08-17T03:33:02.279Z,90.00
2022-08-17T03:35:32.473Z,90.10
2022-08-17T03:38:02.468Z,90.10
2022-08-17T03:40:36.985Z,90.30
2022-08-17T03:43:22.509Z,90.50
2022-08-17T03:46:28.943Z,90.60
2022-08-17T03:49:15.184Z,90.80
2022-08-17T03:52:00.953Z,90.90
2022-08-17T03:54:46.410Z,90.90
2022-08-17T03:57:16.501Z,91.00
2022-08-17T03:59:45.027Z,91.10
2022-08-17T04:02:18.546Z,91.20
2022-08-17T04:04:46.714Z,91.20
2022-08-17T04:07:14.932Z,91.40
2022-08-17T04:09:43.760Z,91.40
2022-08-17T04:12:12.686Z,91.40
2022-08-17T04:14:52.296Z,91.40
2022-08-17T04:17:24.543Z,91.80
2022-08-17T04:19:52.981Z,91.50
2022-08-17T04:22:31.938Z,91.40
2022-08-17T04:25:05.390Z,91.40
2022-08-17T04:27:33.455Z,91.40
2022-08-17T04:30:03.987Z,91.30
2022-08-17T04:33:05.527Z,91.30
2022-08-17T04:35:24.055Z,91.30
2022-08-17T04:37:52.466Z,91.30
2022-08-17T04:40:42.049Z,91.30
2022-08-17T04:43:12.327Z,91.20
2022-08-17T04:45:51.279Z,91.20
2022-08-17T04:48:29.573Z,91.10
2022-08-17T04:51:04.481Z,91.10
2022-08-17T04:53:32.712Z,91.30
2022-08-17T04:56:01.782Z,91.40
2022-08-17T04:58:30.106Z,91.40
2022-08-17T05:01:02.278Z,91.40
2022-08-17T05:03:31.379Z,91.50
2022-08-17T05:06:01.474Z,91.50
2022-08-17T05:08:29.658Z,91.50
2022-08-17T05:10:58.082Z,91.70
2022-08-17T05:13:29.676Z,91.80
2022-08-17T05:16:01.894Z,91.90
2022-08-17T05:18:30.909Z,92.10
2022-08-17T05:20:59.288Z,92.10
2022-08-17T05:23:42.696Z,92.20
2022-08-17T05:26:25.509Z,92.30
2022-08-17T05:28:56.967Z,92.40
2022-08-17T05:31:26.892Z,92.50
2022-08-17T05:33:55.030Z,92.60
2022-08-17T05:36:41.933Z,92.60
2022-08-17T05:39:16.600Z,92.60
2022-08-17T05:41:47.056Z,92.70
2022-08-17T05:44:15.241Z,92.60
2022-08-17T05:46:49.893Z,92.60
2022-08-17T05:49:21.175Z,92.50
2022-08-17T05:52:20.167Z,92.50
2022-08-17T05:55:02.530Z,92.40
2022-08-17T05:57:52.904Z,92.30
2022-08-17T06:00:30.026Z,92.30
2022-08-17T06:03:20.072Z,92.40
2022-08-17T06:06:01.287Z,92.50
2022-08-17T06:08:39.608Z,92.50
2022-08-17T06:11:19.873Z,92.60
2022-08-17T06:14:09.527Z,92.70
2022-08-17T06:16:41.282Z,92.70
2022-08-17T06:19:16.702Z,92.70
2022-08-17T06:21:49.759Z,92.70
2022-08-17T06:24:29.768Z,92.70
2022-08-17T06:27:03.564Z,92.70
2022-08-17T06:29:42.395Z,92.80
2022-08-17T06:32:12.968Z,92.90
2022-08-17T06:34:44.343Z,93.00
2022-08-17T06:37:37.192Z,93.10
2022-08-17T06:40:20.717Z,93.10
2022-08-17T06:43:08.179Z,93.20
2022-08-17T06:45:40.477Z,93.30
2022-08-17T06:48:13.917Z,93.30
2022-08-17T06:50:48.790Z,93.30
2022-08-17T06:53:24.847Z,93.40
2022-08-17T06:56:03.006Z,93.50
2022-08-17T06:58:35.762Z,93.50
2022-08-17T07:01:11.624Z,93.60
2022-08-17T07:03:46.748Z,93.60
2022-08-17T07:06:19.560Z,93.60
2022-08-17T07:08:57.709Z,93.60
2022-08-17T07:11:31.807Z,93.60
2022-08-17T07:14:07.336Z,93.60
2022-08-17T07:16:42.136Z,93.50
2022-08-17T07:19:11.199Z,93.70
2022-08-17T07:21:50.303Z,93.70
2022-08-17T07:24:31.305Z,93.70
2022-08-17T07:27:14.279Z,93.70
2022-08-17T07:29:46.717Z,93.70
2022-08-17T07:32:20.046Z,93.70
2022-08-17T07:35:11.165Z,93.70
2022-08-17T07:37:42.706Z,93.60
2022-08-17T07:40:32.058Z,93.50
2022-08-17T07:43:23.341Z,93.50
2022-08-17T07:46:35.191Z,93.50
2022-08-17T07:49:25.972Z,93.50
2022-08-17T07:52:13.561Z,93.50
2022-08-17T07:54:56.214Z,93.50
2022-08-17T07:57:36.402Z,93.40
2022-08-17T08:00:23.913Z,93.30
2022-08-17T08:03:16.705Z,93.20
2022-08-17T08:05:55.882Z,93.10
2022-08-17T08:08:28.693Z,93.00
2022-08-17T08:11:06.281Z,93.00
2022-08-17T08:13:40.691Z,92.90
2022-08-17T08:16:24.430Z,92.90
2022-08-17T08:18:57.354Z,92.80
2022-08-17T08:21:47.599Z,92.70
2022-08-17T08:24:32.488Z,92.50
2022-08-17T08:27:13.955Z,92.40
2022-08-17T08:29:50.162Z,92.30
2022-08-17T08:32:23.838Z,92.30
2022-08-17T08:35:04.069Z,92.60
2022-08-17T08:37:44.431Z,92.90
2022-08-17T08:40:31.376Z,93.60
2022-08-17T08:43:11.667Z,94.10
2022-08-17T08:45:47.271Z,94.50
2022-08-17T08:48:53.239Z,94.90
2022-08-17T08:51:27.801Z,95.20
2022-08-17T08:54:05.042Z,95.60
2022-08-17T08:56:53.798Z,95.80
2022-08-17T08:59:42.029Z,96.00
2022-08-17T09:02:24.017Z,96.30
2022-08-17T09:05:14.426Z,96.30
2022-08-17T09:07:49.920Z,96.50
2022-08-17T09:10:28.483Z,96.60
2022-08-17T09:13:09.513Z,96.70
2022-08-17T09:15:46.317Z,96.70
2022-08-17T09:18:59.896Z,97.00
2022-08-17T09:21:18.204Z,96.70
2022-08-17T09:23:59.670Z,96.70
2022-08-17T09:26:35.189Z,96.70
2022-08-17T09:29:10.043Z,96.50
2022-08-17T09:31:49.401Z,96.60
2022-08-17T09:34:31.895Z,96.60
2022-08-17T09:37:08.687Z,96.80
2022-08-17T09:39:43.066Z,97.00
2022-08-17T09:42:19.049Z,97.30
2022-08-17T09:44:55.212Z,97.50
2022-08-17T09:47:31.911Z,97.70
2022-08-17T09:50:11.521Z,97.80
2022-08-17T09:52:40.158Z,98.00
2022-08-17T09:55:09.671Z,98.10
2022-08-17T09:58:04.983Z,98.20
2022-08-17T10:00:38.397Z,98.30
2022-08-17T10:03:28.335Z,98.60
2022-08-17T10:06:06.532Z,98.70
2022-08-17T10:08:42.803Z,98.90
2022-08-17T10:11:20.438Z,99.00
2022-08-17T10:14:37.640Z,98.90
2022-08-17T10:17:03.486Z,98.60
2022-08-17T10:19:44.265Z,98.50
2022-08-17T10:22:38.350Z,98.30
2022-08-17T10:25:37.787Z,98.00
2022-08-17T10:28:24.697Z,97.60
2022-08-17T10:31:30.852Z,97.40
2022-08-17T10:34:04.651Z,96.90
2022-08-17T10:36:48.341Z,96.60
2022-08-17T10:39:28.986Z,96.70
2022-08-17T10:42:03.365Z,96.40
2022-08-17T10:44:48.473Z,95.90
2022-08-17T10:47:19.124Z,95.90
2022-08-17T10:49:54.086Z,95.90
2022-08-17T10:52:51.885Z,95.60
2022-08-17T10:55:21.587Z,95.30
2022-08-17T10:57:55.033Z,95.20
2022-08-17T11:01:04.482Z,95.10
2022-08-17T11:03:33.547Z,94.60
2022-08-17T11:06:17.042Z,94.40
2022-08-17T11:09:15.937Z,94.30
2022-08-17T11:12:00.654Z,94.10
2022-08-17T11:15:08.586Z,94.00
2022-08-17T11:18:10.051Z,93.90
2022-08-17T11:21:13.406Z,93.80
2022-08-17T11:24:14.871Z,93.80
2022-08-17T11:26:49.167Z,93.90
2022-08-17T11:29:24.828Z,94.10
2022-08-17T11:32:03.616Z,94.30
2022-08-17T11:34:34.775Z,94.40
2022-08-17T11:37:27.081Z,94.70
2022-08-17T11:40:38.691Z,94.80
2022-08-17T11:43:39.519Z,95.00
2022-08-17T11:46:21.165Z,95.50
2022-08-17T11:49:19.768Z,95.90
2022-08-17T11:52:35.414Z,95.90
2022-08-17T11:55:31.946Z,95.90
2022-08-17T11:58:01.819Z,96.40
2022-08-17T12:00:57.790Z,96.70
2022-08-17T12:03:55.305Z,96.80
2022-08-17T12:06:46.222Z,97.10
2022-08-17T12:09:19.240Z,97.30
2022-08-17T12:12:12.818Z,97.50
2022-08-17T12:17:40.434Z,98.20
2022-08-17T12:20:15.181Z,98.20
2022-08-17T12:23:01.134Z,98.40
2022-08-17T12:25:36.951Z,98.70
2022-08-17T12:28:08.200Z,98.90
2022-08-17T12:30:38.720Z,99.10
2022-08-17T12:33:25.559Z,99.30
2022-08-17T12:36:00.255Z,99.50
2022-08-17T12:38:33.169Z,99.90
2022-08-17T12:41:24.681Z,99.80
2022-08-17T12:44:02.449Z,99.80
2022-08-17T12:46:37.777Z,99.90
2022-08-17T12:49:23.685Z,99.90
2022-08-17T12:51:56.016Z,99.90
2022-08-17T12:54:34.872Z,99.90
2022-08-17T12:57:11.302Z,99.90
2022-08-17T12:59:45.271Z,99.90
2022-08-17T13:02:32.581Z,99.90
2022-08-17T13:05:02.897Z,99.90
2022-08-17T13:07:35.408Z,99.90
2022-08-17T13:10:05.140Z,99.90
2022-08-17T13:12:36.134Z,99.90
2022-08-17T13:16:01.841Z,99.90
2022-08-17T13:18:40.361Z,99.90
2022-08-17T13:21:19.396Z,99.90
2022-08-17T13:23:59.897Z,99.90
2022-08-17T13:26:33.575Z,99.90
2022-08-17T13:29:02.744Z,99.90
2022-08-17T13:31:49.783Z,99.90
2022-08-17T13:34:48.964Z,99.90
2022-08-17T13:37:32.882Z,99.90
2022-08-17T13:40:03.791Z,99.90
2022-08-17T13:42:52.967Z,99.90
2022-08-17T13:45:50.402Z,99.90
2022-08-17T13:48:26.833Z,99.90
2022-08-17T13:51:18.242Z,99.90
2022-08-17T13:53:59.269Z,99.90
2022-08-17T13:56:57.609Z,99.90
2022-08-17T13:59:52.901Z,99.90
2022-08-17T14:02:25.994Z,99.90
2022-08-17T14:04:58.509Z,99.90
2022-08-17T14:07:37.760Z,99.90
2022-08-17T14:10:14.290Z,99.90
2022-08-17T14:12:45.870Z,99.90
2022-08-17T14:15:16.145Z,99.90
2022-08-17T14:17:44.784Z,99.90
2022-08-17T14:20:14.103Z,99.90
2022-08-17T14:22:47.938Z,99.90
2022-08-17T14:25:20.796Z,99.90
2022-08-17T14:27:52.647Z,99.90
2022-08-17T14:30:24.249Z,99.90
2022-08-17T14:32:53.655Z,99.90
2022-08-17T14:35:24.779Z,99.90
2022-08-17T14:37:53.896Z,99.90
2022-08-17T14:40:25.432Z,99.90
2022-08-17T14:42:56.855Z,99.90
2022-08-17T14:45:31.640Z,99.90
2022-08-17T14:48:05.717Z,99.90
2022-08-17T14:50:35.850Z,99.90
2022-08-17T14:53:08.523Z,99.90
2022-08-17T14:55:40.752Z,99.90
2022-08-17T14:58:09.847Z,99.90
2022-08-17T15:00:40.929Z,99.90
2022-08-17T15:03:09.034Z,99.90
2022-08-17T15:05:57.473Z,99.90
2022-08-17T15:11:22.065Z,99.90
2022-08-17T15:13:52.741Z,99.90
2022-08-17T15:16:21.692Z,99.90
2022-08-17T15:18:50.288Z,99.90
2022-08-17T15:21:18.713Z,99.90
2022-08-17T15:23:47.785Z,99.90
2022-08-17T15:26:26.216Z,99.90
2022-08-17T15:28:56.139Z,99.90
2022-08-17T15:31:31.664Z,99.90
2022-08-17T15:34:00.862Z,99.90
2022-08-17T15:36:29.139Z,99.90
2022-08-17T15:38:58.753Z,99.90
2022-08-17T15:41:31.215Z,99.90
2022-08-17T15:44:00.189Z,99.90
2022-08-17T15:46:28.777Z,99.90
2022-08-17T15:48:59.744Z,99.90
2022-08-17T15:51:30.497Z,99.90
2022-08-17T15:54:04.227Z,99.90
2022-08-17T15:56:46.593Z,99.90
2022-08-17T15:59:14.804Z,99.90
2022-08-17T16:03:14.330Z,99.90
2022-08-17T16:04:31.833Z,99.90
2022-08-17T16:07:01.074Z,99.90
2022-08-17T16:09:31.867Z,99.90
2022-08-17T16:12:20.290Z,99.90
2022-08-17T16:14:51.714Z,99.90
2022-08-17T16:17:38.278Z,99.90
2022-08-17T16:20:09.018Z,99.90
2022-08-17T16:22:39.605Z,99.90
2022-08-17T16:25:11.278Z,99.90
2022-08-17T16:27:39.906Z,99.90
2022-08-17T16:30:16.944Z,99.90
2022-08-17T16:32:46.976Z,99.90
2022-08-17T16:35:18.147Z,99.90
2022-08-17T16:37:47.009Z,99.90
2022-08-17T16:40:17.108Z,99.90
2022-08-17T16:42:48.401Z,99.90
2022-08-17T16:45:19.834Z,99.90
2022-08-17T16:47:50.088Z,99.90
2022-08-17T16:50:22.804Z,99.90
2022-08-17T16:52:51.774Z,99.90
2022-08-17T16:55:22.616Z,99.90
2022-08-17T16:57:53.095Z,99.90
2022-08-17T17:00:22.897Z,99.90
2022-08-17T17:02:51.649Z,99.90
2022-08-17T17:05:37.522Z,99.90
2022-08-17T17:08:12.765Z,99.90
2022-08-17T17:10:44.068Z,99.90
2022-08-17T17:13:22.204Z,99.90
2022-08-17T17:16:01.567Z,99.90
2022-08-17T17:18:40.210Z,99.90
2022-08-17T17:21:13.584Z,99.90
2022-08-17T17:23:53.678Z,99.90
2022-08-17T17:26:37.903Z,99.90
2022-08-17T17:29:21.174Z,99.90
2022-08-17T17:31:57.816Z,99.90
2022-08-17T17:34:31.157Z,99.90
2022-08-17T17:37:03.479Z,99.90
2022-08-17T17:39:43.575Z,99.90
2022-08-17T17:42:19.986Z,99.90
2022-08-17T17:44:52.114Z,99.90
2022-08-17T17:47:22.040Z,99.90
2022-08-17T17:49:50.065Z,99.90
2022-08-17T17:52:27.190Z,99.90
2022-08-17T17:55:05.711Z,99.90
2022-08-17T17:57:45.290Z,99.90
2022-08-17T18:00:18.005Z,99.90
2022-08-17T18:03:01.112Z,99.90
2022-08-17T18:05:44.643Z,99.90
2022-08-17T18:08:44.796Z,99.90
2022-08-17T18:11:34.849Z,99.90
2022-08-17T18:14:33.735Z,99.90
2022-08-17T18:17:02.639Z,99.90
2022-08-17T18:19:33.689Z,99.90
2022-08-17T18:22:08.735Z,99.90
2022-08-17T18:24:44.742Z,99.90
2022-08-17T18:27:23.270Z,99.90
2022-08-17T18:29:53.262Z,99.90
2022-08-17T18:32:33.001Z,99.90
2022-08-17T18:35:19.479Z,99.90
2022-08-17T18:37:49.677Z,99.90
2022-08-17T18:40:38.506Z,99.90
2022-08-17T18:43:14.662Z,99.90
2022-08-17T18:45:47.181Z,99.90
2022-08-17T18:48:32.990Z,99.90
2022-08-17T18:51:21.588Z,99.90
2022-08-17T18:54:18.131Z,99.90
2022-08-17T18:56:54.668Z,99.90
2022-08-17T18:59:32.249Z,99.90
2022-08-17T19:02:45.679Z,99.90
2022-08-17T19:05:34.175Z,99.90
2022-08-17T19:08:33.735Z,99.90
2022-08-17T19:11:05.629Z,99.90
2022-08-17T19:13:38.339Z,99.90
2022-08-17T19:16:15.015Z,99.90
2022-08-17T19:18:49.606Z,99.90
2022-08-17T19:21:25.033Z,99.90
2022-08-17T19:24:01.219Z,99.90
2022-08-17T19:26:53.539Z,99.90
2022-08-17T19:29:26.549Z,99.90
2022-08-17T19:32:00.574Z,99.90
2022-08-17T19:34:34.348Z,99.90
2022-08-17T19:37:11.463Z,99.90
2022-08-17T19:39:47.444Z,99.90
2022-08-17T19:42:35.062Z,99.90
2022-08-17T19:45:10.065Z,99.90
2022-08-17T19:47:54.674Z,99.90
2022-08-17T19:50:39.076Z,99.90
2022-08-17T19:53:20.730Z,99.90
2022-08-17T19:55:56.836Z,99.90
2022-08-17T19:58:37.756Z,99.90
2022-08-17T20:01:10.600Z,99.90
2022-08-17T20:03:53.473Z,99.90
2022-08-17T20:06:22.704Z,99.90
2022-08-17T20:08:58.812Z,99.90
2022-08-17T20:11:36.014Z,99.90
2022-08-17T20:14:08.192Z,99.90
2022-08-17T20:16:36.232Z,99.90
2022-08-17T20:19:11.172Z,99.90
2022-08-17T20:21:47.047Z,99.90
2022-08-17T20:24:22.344Z,99.90
2022-08-17T20:26:58.939Z,99.90
2022-08-17T20:29:39.779Z,99.90
2022-08-17T20:32:30.896Z,99.90
2022-08-17T20:35:10.996Z,99.90
2022-08-17T20:37:44.319Z,99.90
2022-08-17T20:40:20.704Z,99.90
2022-08-17T20:42:51.207Z,99.90
2022-08-17T20:46:00.849Z,99.90
2022-08-17T20:48:38.493Z,99.90
2022-08-17T20:51:27.374Z,99.90
2022-08-17T20:54:34.165Z,99.90
2022-08-17T20:57:02.645Z,99.90
2022-08-17T21:00:13.879Z,99.90
2022-08-17T21:02:44.697Z,99.90
2022-08-17T21:05:32.354Z,99.90
2022-08-17T21:08:16.876Z,99.90
2022-08-17T21:10:47.694Z,99.90
2022-08-17T21:13:53.577Z,99.90
2022-08-17T21:16:41.307Z,99.90
2022-08-17T21:19:44.383Z,99.90
2022-08-17T21:22:40.593Z,99.90
2022-08-17T21:25:21.952Z,99.90
2022-08-17T21:28:02.481Z,99.90
2022-08-17T21:30:51.727Z,99.90
2022-08-17T21:33:28.055Z,99.90
2022-08-17T21:36:25.510Z,99.90
2022-08-17T21:39:01.324Z,99.90
2022-08-17T21:41:34.551Z,99.90
2022-08-17T21:44:08.217Z,99.90
2022-08-17T21:46:40.062Z,99.90
2022-08-17T21:49:13.682Z,99.90
2022-08-17T21:51:46.478Z,99.90
2022-08-17T21:54:27.131Z,99.90
2022-08-17T21:56:55.570Z,99.90
2022-08-17T21:59:28.879Z,99.90
2022-08-17T22:01:59.539Z,99.90
2022-08-17T22:04:31.649Z,99.90
2022-08-17T22:07:01.952Z,99.90
2022-08-17T22:09:32.187Z,99.90
2022-08-17T22:12:09.195Z,99.90
2022-08-17T22:14:52.935Z,99.90
2022-08-17T22:17:25.402Z,99.90
2022-08-17T22:19:57.431Z,99.90
2022-08-17T22:22:29.913Z,99.90
2022-08-17T22:25:01.449Z,99.90
2022-08-17T22:27:49.877Z,99.90
2022-08-17T22:30:27.370Z,99.90
2022-08-17T22:32:55.785Z,99.90
2022-08-17T22:35:42.091Z,99.90
2022-08-17T22:38:44.021Z,99.90
2022-08-17T22:41:32.205Z,99.90
2022-08-17T22:44:10.195Z,99.90
2022-08-17T22:46:48.608Z,99.90
2022-08-17T22:49:26.776Z,99.90
2022-08-17T22:52:04.770Z,99.90
2022-08-17T22:54:50.631Z,99.90
2022-08-17T22:57:52.131Z,99.90
2022-08-17T23:00:37.356Z,99.90
2022-08-17T23:03:18.936Z,99.90
2022-08-17T23:05:49.488Z,99.90
2022-08-17T23:08:21.297Z,99.90
2022-08-17T23:10:49.886Z,99.90
2022-08-17T23:13:18.083Z,99.90
2022-08-17T23:15:48.160Z,99.90
2022-08-17T23:18:17.565Z,99.90
2022-08-17T23:20:45.970Z,99.90
2022-08-17T23:23:15.861Z,99.90
2022-08-17T23:25:46.187Z,99.90
2022-08-17T23:28:14.351Z,99.90
2022-08-17T23:30:44.793Z,99.90
2022-08-17T23:33:19.981Z,99.90
2022-08-17T23:35:48.022Z,99.90
2022-08-17T23:38:15.990Z,99.90
2022-08-17T23:40:45.514Z,99.90
2022-08-17T23:43:23.881Z,99.90
2022-08-17T23:45:53.554Z,99.90
2022-08-17T23:48:35.115Z,99.90
2022-08-17T23:51:09.479Z,99.90
2022-08-17T23:53:40.378Z,99.90
2022-08-17T23:56:11.421Z,99.90
2022-08-17T23:58:42.096Z,99.90
